sensor_id;sensor_type;location;lat;lon;timestamp;P1;durP1;ratioP1;P2;durP2;ratioP2
73919;SDS011;62266;53.348;-1.496;2022-12-18T00:01:31;12.10;;;6.33;;
73919;SDS011;62266;53.348;-1.496;2022-12-18T00:04:02;10.50;;;6.32;;
73919;SDS011;62266;53.348;-1.496;2022-12-18T00:06:29;15.77;;;7.50;;
73919;SDS011;62266;53.348;-1.496;2022-12-18T00:08:56;15.30;;;7.35;;
73919;SDS011;62266;53.348;-1.496;2022-12-18T00:11:25;13.52;;;7.22;;
73919;SDS011;62266;53.348;-1.496;2022-12-18T00:13:55;10.83;;;7.13;;
73919;SDS011;62266;53.348;-1.496;2022-12-18T00:16:23;14.70;;;7.00;;
73919;SDS011;62266;53.348;-1.496;2022-12-18T00:18:50;12.63;;;7.40;;
73919;SDS011;62266;53.348;-1.496;2022-12-18T00:21:17;13.50;;;7.65;;
73919;SDS011;62266;53.348;-1.496;2022-12-18T00:23:44;13.02;;;7.50;;
73919;SDS011;62266;53.348;-1.496;2022-12-18T00:26:11;13.50;;;7.60;;
73919;SDS011;62266;53.348;-1.496;2022-12-18T00:28:59;12.55;;;6.50;;
73919;SDS011;62266;53.348;-1.496;2022-12-18T00:31:27;13.68;;;6.25;;
73919;SDS011;62266;53.348;-1.496;2022-12-18T00:33:53;9.98;;;5.90;;
73919;SDS011;62266;53.348;-1.496;2022-12-18T00:36:23;15.65;;;6.43;;
73919;SDS011;62266;53.348;-1.496;2022-12-18T00:38:50;13.07;;;5.83;;
73919;SDS011;62266;53.348;-1.496;2022-12-18T00:41:16;9.82;;;5.00;;
73919;SDS011;62266;53.348;-1.496;2022-12-18T00:44:03;7.88;;;4.72;;
73919;SDS011;62266;53.348;-1.496;2022-12-18T00:46:29;11.15;;;5.30;;
73919;SDS011;62266;53.348;-1.496;2022-12-18T00:48:55;12.82;;;6.05;;
73919;SDS011;62266;53.348;-1.496;2022-12-18T00:51:21;10.60;;;4.67;;
73919;SDS011;62266;53.348;-1.496;2022-12-18T00:53:47;10.57;;;5.35;;
73919;SDS011;62266;53.348;-1.496;2022-12-18T00:56:12;10.67;;;5.10;;
73919;SDS011;62266;53.348;-1.496;2022-12-18T00:58:38;11.45;;;4.97;;
73919;SDS011;62266;53.348;-1.496;2022-12-18T01:01:05;11.48;;;5.20;;
73919;SDS011;62266;53.348;-1.496;2022-12-18T01:03:30;10.07;;;5.47;;
73919;SDS011;62266;53.348;-1.496;2022-12-18T01:05:56;13.00;;;5.90;;
73919;SDS011;62266;53.348;-1.496;2022-12-18T01:08:22;12.50;;;6.43;;
73919;SDS011;62266;53.348;-1.496;2022-12-18T01:10:47;12.53;;;6.80;;
73919;SDS011;62266;53.348;-1.496;2022-12-18T01:13:13;11.77;;;6.47;;
73919;SDS011;62266;53.348;-1.496;2022-12-18T01:15:39;15.60;;;7.65;;
73919;SDS011;62266;53.348;-1.496;2022-12-18T01:18:05;11.33;;;6.60;;
73919;SDS011;62266;53.348;-1.496;2022-12-18T01:20:31;12.30;;;6.38;;
73919;SDS011;62266;53.348;-1.496;2022-12-18T01:22:57;10.20;;;5.95;;
73919;SDS011;62266;53.348;-1.496;2022-12-18T01:25:23;10.40;;;5.37;;
73919;SDS011;62266;53.348;-1.496;2022-12-18T01:27:49;9.75;;;5.80;;
73919;SDS011;62266;53.348;-1.496;2022-12-18T01:30:14;12.37;;;5.87;;
73919;SDS011;62266;53.348;-1.496;2022-12-18T01:32:40;9.35;;;5.50;;
73919;SDS011;62266;53.348;-1.496;2022-12-18T01:35:05;12.37;;;6.63;;
73919;SDS011;62266;53.348;-1.496;2022-12-18T01:37:31;13.95;;;6.55;;
73919;SDS011;62266;53.348;-1.496;2022-12-18T01:39:57;13.07;;;7.33;;
73919;SDS011;62266;53.348;-1.496;2022-12-18T01:42:23;12.63;;;6.85;;
73919;SDS011;62266;53.348;-1.496;2022-12-18T01:47:56;10.80;;;6.20;;
73919;SDS011;62266;53.348;-1.496;2022-12-18T01:55:30;15.85;;;7.00;;
73919;SDS011;62266;53.348;-1.496;2022-12-18T01:57:57;11.98;;;6.47;;
73919;SDS011;62266;53.348;-1.496;2022-12-18T02:00:24;14.00;;;6.80;;
73919;SDS011;62266;53.348;-1.496;2022-12-18T02:02:51;13.37;;;6.93;;
73919;SDS011;62266;53.348;-1.496;2022-12-18T02:05:34;15.40;;;7.10;;
73919;SDS011;62266;53.348;-1.496;2022-12-18T02:08:22;15.35;;;7.85;;
73919;SDS011;62266;53.348;-1.496;2022-12-18T02:11:20;12.45;;;7.05;;
73919;SDS011;62266;53.348;-1.496;2022-12-18T02:13:58;14.60;;;7.85;;
73919;SDS011;62266;53.348;-1.496;2022-12-18T02:16:37;13.13;;;7.43;;
73919;SDS011;62266;53.348;-1.496;2022-12-18T02:19:12;15.80;;;7.28;;
73919;SDS011;62266;53.348;-1.496;2022-12-18T02:21:48;17.38;;;7.90;;
73919;SDS011;62266;53.348;-1.496;2022-12-18T02:24:33;12.82;;;7.55;;
73919;SDS011;62266;53.348;-1.496;2022-12-18T02:27:04;13.93;;;8.13;;
73919;SDS011;62266;53.348;-1.496;2022-12-18T02:29:39;14.30;;;8.33;;
73919;SDS011;62266;53.348;-1.496;2022-12-18T02:32:10;17.30;;;8.52;;
73919;SDS011;62266;53.348;-1.496;2022-12-18T02:34:39;17.50;;;8.95;;
73919;SDS011;62266;53.348;-1.496;2022-12-18T02:37:06;14.73;;;8.40;;
73919;SDS011;62266;53.348;-1.496;2022-12-18T02:39:36;13.07;;;8.63;;
73919;SDS011;62266;53.348;-1.496;2022-12-18T02:42:02;16.83;;;8.33;;
73919;SDS011;62266;53.348;-1.496;2022-12-18T02:44:34;16.10;;;10.05;;
73919;SDS011;62266;53.348;-1.496;2022-12-18T02:47:00;14.73;;;8.15;;
73919;SDS011;62266;53.348;-1.496;2022-12-18T02:51:53;18.40;;;10.83;;
73919;SDS011;62266;53.348;-1.496;2022-12-18T02:57:10;22.35;;;12.35;;
73919;SDS011;62266;53.348;-1.496;2022-12-18T02:59:45;24.63;;;12.98;;
73919;SDS011;62266;53.348;-1.496;2022-12-18T03:02:23;22.98;;;12.25;;
73919;SDS011;62266;53.348;-1.496;2022-12-18T03:04:56;20.50;;;12.37;;
73919;SDS011;62266;53.348;-1.496;2022-12-18T03:10:32;21.40;;;12.13;;
73919;SDS011;62266;53.348;-1.496;2022-12-18T03:13:05;21.42;;;12.27;;
73919;SDS011;62266;53.348;-1.496;2022-12-18T03:15:34;21.35;;;12.48;;
73919;SDS011;62266;53.348;-1.496;2022-12-18T03:18:02;22.00;;;11.93;;
73919;SDS011;62266;53.348;-1.496;2022-12-18T03:20:37;24.80;;;12.77;;
73919;SDS011;62266;53.348;-1.496;2022-12-18T03:23:13;22.80;;;12.23;;
73919;SDS011;62266;53.348;-1.496;2022-12-18T03:25:41;22.45;;;12.40;;
73919;SDS011;62266;53.348;-1.496;2022-12-18T03:28:09;26.58;;;13.73;;
73919;SDS011;62266;53.348;-1.496;2022-12-18T03:30:38;22.33;;;12.90;;
73919;SDS011;62266;53.348;-1.496;2022-12-18T03:35:43;26.25;;;13.30;;
73919;SDS011;62266;53.348;-1.496;2022-12-18T03:38:09;25.90;;;13.73;;
73919;SDS011;62266;53.348;-1.496;2022-12-18T03:43:25;23.92;;;12.52;;
73919;SDS011;62266;53.348;-1.496;2022-12-18T03:46:02;22.63;;;12.13;;
73919;SDS011;62266;53.348;-1.496;2022-12-18T03:48:31;22.83;;;12.50;;
73919;SDS011;62266;53.348;-1.496;2022-12-18T03:51:05;25.60;;;12.55;;
73919;SDS011;62266;53.348;-1.496;2022-12-18T03:53:51;22.53;;;12.27;;
73919;SDS011;62266;53.348;-1.496;2022-12-18T03:56:21;21.85;;;12.43;;
73919;SDS011;62266;53.348;-1.496;2022-12-18T03:58:47;24.85;;;13.48;;
73919;SDS011;62266;53.348;-1.496;2022-12-18T04:01:15;26.55;;;13.40;;
73919;SDS011;62266;53.348;-1.496;2022-12-18T04:03:42;27.30;;;14.85;;
73919;SDS011;62266;53.348;-1.496;2022-12-18T04:06:08;37.53;;;18.83;;
73919;SDS011;62266;53.348;-1.496;2022-12-18T04:08:35;60.88;;;31.52;;
73919;SDS011;62266;53.348;-1.496;2022-12-18T04:11:00;50.15;;;27.23;;
73919;SDS011;62266;53.348;-1.496;2022-12-18T04:13:32;36.53;;;21.13;;
73919;SDS011;62266;53.348;-1.496;2022-12-18T04:15:59;29.10;;;15.80;;
73919;SDS011;62266;53.348;-1.496;2022-12-18T04:18:25;40.03;;;24.25;;
73919;SDS011;62266;53.348;-1.496;2022-12-18T04:20:51;21.10;;;13.23;;
73919;SDS011;62266;53.348;-1.496;2022-12-18T04:23:17;25.90;;;14.75;;
73919;SDS011;62266;53.348;-1.496;2022-12-18T04:25:43;26.85;;;15.82;;
73919;SDS011;62266;53.348;-1.496;2022-12-18T04:28:09;26.07;;;14.00;;
73919;SDS011;62266;53.348;-1.496;2022-12-18T04:30:34;33.13;;;16.53;;
73919;SDS011;62266;53.348;-1.496;2022-12-18T04:33:00;34.07;;;15.60;;
73919;SDS011;62266;53.348;-1.496;2022-12-18T04:35:27;26.65;;;14.43;;
73919;SDS011;62266;53.348;-1.496;2022-12-18T04:37:53;23.17;;;13.23;;
73919;SDS011;62266;53.348;-1.496;2022-12-18T04:40:18;26.97;;;13.50;;
73919;SDS011;62266;53.348;-1.496;2022-12-18T04:42:44;28.33;;;14.07;;
73919;SDS011;62266;53.348;-1.496;2022-12-18T04:45:10;22.33;;;12.07;;
73919;SDS011;62266;53.348;-1.496;2022-12-18T04:47:36;23.63;;;12.63;;
73919;SDS011;62266;53.348;-1.496;2022-12-18T04:50:02;23.83;;;12.00;;
73919;SDS011;62266;53.348;-1.496;2022-12-18T04:52:28;21.52;;;11.63;;
73919;SDS011;62266;53.348;-1.496;2022-12-18T04:54:53;23.40;;;12.07;;
73919;SDS011;62266;53.348;-1.496;2022-12-18T04:57:19;21.27;;;11.50;;
73919;SDS011;62266;53.348;-1.496;2022-12-18T04:59:44;21.73;;;10.83;;
73919;SDS011;62266;53.348;-1.496;2022-12-18T05:02:10;25.40;;;12.63;;
73919;SDS011;62266;53.348;-1.496;2022-12-18T05:04:36;23.17;;;11.70;;
73919;SDS011;62266;53.348;-1.496;2022-12-18T05:07:02;24.47;;;12.20;;
73919;SDS011;62266;53.348;-1.496;2022-12-18T05:09:27;24.23;;;12.32;;
73919;SDS011;62266;53.348;-1.496;2022-12-18T05:11:54;25.90;;;11.88;;
73919;SDS011;62266;53.348;-1.496;2022-12-18T05:14:20;28.10;;;12.60;;
73919;SDS011;62266;53.348;-1.496;2022-12-18T05:16:45;28.43;;;12.83;;
73919;SDS011;62266;53.348;-1.496;2022-12-18T05:19:11;29.40;;;13.43;;
73919;SDS011;62266;53.348;-1.496;2022-12-18T05:21:37;28.77;;;13.43;;
73919;SDS011;62266;53.348;-1.496;2022-12-18T05:24:03;27.60;;;12.90;;
73919;SDS011;62266;53.348;-1.496;2022-12-18T05:26:29;27.38;;;12.55;;
73919;SDS011;62266;53.348;-1.496;2022-12-18T05:28:56;29.93;;;14.13;;
73919;SDS011;62266;53.348;-1.496;2022-12-18T05:31:21;28.80;;;14.50;;
73919;SDS011;62266;53.348;-1.496;2022-12-18T05:33:47;28.05;;;14.38;;
73919;SDS011;62266;53.348;-1.496;2022-12-18T05:36:12;28.10;;;13.83;;
73919;SDS011;62266;53.348;-1.496;2022-12-18T05:38:39;28.80;;;14.48;;
73919;SDS011;62266;53.348;-1.496;2022-12-18T05:41:06;30.40;;;14.30;;
73919;SDS011;62266;53.348;-1.496;2022-12-18T05:43:33;34.47;;;14.50;;
73919;SDS011;62266;53.348;-1.496;2022-12-18T05:46:03;33.40;;;15.15;;
73919;SDS011;62266;53.348;-1.496;2022-12-18T05:48:32;34.45;;;14.93;;
73919;SDS011;62266;53.348;-1.496;2022-12-18T05:51:02;33.10;;;14.80;;
73919;SDS011;62266;53.348;-1.496;2022-12-18T05:53:34;36.70;;;15.38;;
73919;SDS011;62266;53.348;-1.496;2022-12-18T05:56:01;40.13;;;16.33;;
73919;SDS011;62266;53.348;-1.496;2022-12-18T05:58:28;40.13;;;15.98;;
73919;SDS011;62266;53.348;-1.496;2022-12-18T06:00:53;38.60;;;17.20;;
73919;SDS011;62266;53.348;-1.496;2022-12-18T06:03:19;45.17;;;15.80;;
73919;SDS011;62266;53.348;-1.496;2022-12-18T06:05:45;36.47;;;15.53;;
73919;SDS011;62266;53.348;-1.496;2022-12-18T06:08:11;38.95;;;15.68;;
73919;SDS011;62266;53.348;-1.496;2022-12-18T06:10:38;42.20;;;17.55;;
73919;SDS011;62266;53.348;-1.496;2022-12-18T06:13:04;38.80;;;16.47;;
73919;SDS011;62266;53.348;-1.496;2022-12-18T06:15:30;41.17;;;17.45;;
73919;SDS011;62266;53.348;-1.496;2022-12-18T06:17:55;44.95;;;19.23;;
73919;SDS011;62266;53.348;-1.496;2022-12-18T06:20:21;46.73;;;18.47;;
73919;SDS011;62266;53.348;-1.496;2022-12-18T06:22:47;48.50;;;19.95;;
73919;SDS011;62266;53.348;-1.496;2022-12-18T06:25:12;52.67;;;19.67;;
73919;SDS011;62266;53.348;-1.496;2022-12-18T06:27:38;48.20;;;19.13;;
73919;SDS011;62266;53.348;-1.496;2022-12-18T06:30:04;45.50;;;19.52;;
73919;SDS011;62266;53.348;-1.496;2022-12-18T06:32:30;47.13;;;19.23;;
73919;SDS011;62266;53.348;-1.496;2022-12-18T06:34:56;46.53;;;18.60;;
73919;SDS011;62266;53.348;-1.496;2022-12-18T06:37:21;44.87;;;18.57;;
73919;SDS011;62266;53.348;-1.496;2022-12-18T06:39:51;47.88;;;19.70;;
73919;SDS011;62266;53.348;-1.496;2022-12-18T06:42:17;52.72;;;21.25;;
73919;SDS011;62266;53.348;-1.496;2022-12-18T06:44:43;43.78;;;19.05;;
73919;SDS011;62266;53.348;-1.496;2022-12-18T06:47:08;46.40;;;19.37;;
73919;SDS011;62266;53.348;-1.496;2022-12-18T06:49:34;49.97;;;20.70;;
73919;SDS011;62266;53.348;-1.496;2022-12-18T06:51:59;44.80;;;18.95;;
73919;SDS011;62266;53.348;-1.496;2022-12-18T06:54:25;45.80;;;18.87;;
73919;SDS011;62266;53.348;-1.496;2022-12-18T06:56:51;50.07;;;20.17;;
73919;SDS011;62266;53.348;-1.496;2022-12-18T06:59:16;48.73;;;19.73;;
73919;SDS011;62266;53.348;-1.496;2022-12-18T07:01:42;49.85;;;20.52;;
73919;SDS011;62266;53.348;-1.496;2022-12-18T07:04:07;46.77;;;18.40;;
73919;SDS011;62266;53.348;-1.496;2022-12-18T07:06:33;47.07;;;19.67;;
73919;SDS011;62266;53.348;-1.496;2022-12-18T07:08:58;53.17;;;21.75;;
73919;SDS011;62266;53.348;-1.496;2022-12-18T07:11:24;45.93;;;19.40;;
73919;SDS011;62266;53.348;-1.496;2022-12-18T07:13:49;46.77;;;21.37;;
73919;SDS011;62266;53.348;-1.496;2022-12-18T07:16:17;51.10;;;21.50;;
73919;SDS011;62266;53.348;-1.496;2022-12-18T07:18:43;48.85;;;21.17;;
73919;SDS011;62266;53.348;-1.496;2022-12-18T07:21:10;51.73;;;20.33;;
73919;SDS011;62266;53.348;-1.496;2022-12-18T07:23:37;54.27;;;22.13;;
73919;SDS011;62266;53.348;-1.496;2022-12-18T07:26:07;58.85;;;24.25;;
73919;SDS011;62266;53.348;-1.496;2022-12-18T07:28:34;53.95;;;21.02;;
73919;SDS011;62266;53.348;-1.496;2022-12-18T07:31:05;60.33;;;23.48;;
73919;SDS011;62266;53.348;-1.496;2022-12-18T07:33:36;53.80;;;22.20;;
73919;SDS011;62266;53.348;-1.496;2022-12-18T07:36:02;56.95;;;23.48;;
73919;SDS011;62266;53.348;-1.496;2022-12-18T07:38:30;55.05;;;23.73;;
73919;SDS011;62266;53.348;-1.496;2022-12-18T07:41:02;53.90;;;22.42;;
73919;SDS011;62266;53.348;-1.496;2022-12-18T07:43:35;54.53;;;21.73;;
73919;SDS011;62266;53.348;-1.496;2022-12-18T07:46:01;54.95;;;21.48;;
73919;SDS011;62266;53.348;-1.496;2022-12-18T07:48:28;56.58;;;21.83;;
73919;SDS011;62266;53.348;-1.496;2022-12-18T07:50:57;55.70;;;20.35;;
73919;SDS011;62266;53.348;-1.496;2022-12-18T07:53:29;50.63;;;20.65;;
73919;SDS011;62266;53.348;-1.496;2022-12-18T07:55:56;53.37;;;21.97;;
73919;SDS011;62266;53.348;-1.496;2022-12-18T07:58:27;52.30;;;20.90;;
73919;SDS011;62266;53.348;-1.496;2022-12-18T08:00:52;52.42;;;20.27;;
73919;SDS011;62266;53.348;-1.496;2022-12-18T08:03:18;57.93;;;22.10;;
73919;SDS011;62266;53.348;-1.496;2022-12-18T08:05:44;58.55;;;21.65;;
73919;SDS011;62266;53.348;-1.496;2022-12-18T08:08:10;50.50;;;20.77;;
73919;SDS011;62266;53.348;-1.496;2022-12-18T08:10:37;56.25;;;20.30;;
73919;SDS011;62266;53.348;-1.496;2022-12-18T08:13:03;54.67;;;20.48;;
73919;SDS011;62266;53.348;-1.496;2022-12-18T08:15:29;51.40;;;20.27;;
73919;SDS011;62266;53.348;-1.496;2022-12-18T08:17:58;52.80;;;20.70;;
73919;SDS011;62266;53.348;-1.496;2022-12-18T08:20:24;50.55;;;18.33;;
73919;SDS011;62266;53.348;-1.496;2022-12-18T08:22:50;48.93;;;19.00;;
73919;SDS011;62266;53.348;-1.496;2022-12-18T08:25:16;46.35;;;18.90;;
73919;SDS011;62266;53.348;-1.496;2022-12-18T08:27:43;57.22;;;20.10;;
73919;SDS011;62266;53.348;-1.496;2022-12-18T08:30:10;51.80;;;19.60;;
73919;SDS011;62266;53.348;-1.496;2022-12-18T08:32:36;52.75;;;20.17;;
73919;SDS011;62266;53.348;-1.496;2022-12-18T08:35:03;58.08;;;20.08;;
73919;SDS011;62266;53.348;-1.496;2022-12-18T08:37:34;54.20;;;19.83;;
73919;SDS011;62266;53.348;-1.496;2022-12-18T08:40:00;56.63;;;20.83;;
73919;SDS011;62266;53.348;-1.496;2022-12-18T08:42:27;49.60;;;19.40;;
73919;SDS011;62266;53.348;-1.496;2022-12-18T08:45:13;50.20;;;18.90;;
73919;SDS011;62266;53.348;-1.496;2022-12-18T08:47:40;53.72;;;20.58;;
73919;SDS011;62266;53.348;-1.496;2022-12-18T08:50:09;48.15;;;19.40;;
73919;SDS011;62266;53.348;-1.496;2022-12-18T08:52:35;54.42;;;20.05;;
73919;SDS011;62266;53.348;-1.496;2022-12-18T08:55:01;49.23;;;18.93;;
73919;SDS011;62266;53.348;-1.496;2022-12-18T08:57:27;51.50;;;18.95;;
73919;SDS011;62266;53.348;-1.496;2022-12-18T08:59:52;50.60;;;19.10;;
73919;SDS011;62266;53.348;-1.496;2022-12-18T09:02:18;44.10;;;17.80;;
73919;SDS011;62266;53.348;-1.496;2022-12-18T09:04:46;44.80;;;18.23;;
73919;SDS011;62266;53.348;-1.496;2022-12-18T09:07:12;47.92;;;18.85;;
73919;SDS011;62266;53.348;-1.496;2022-12-18T09:09:38;45.80;;;18.00;;
73919;SDS011;62266;53.348;-1.496;2022-12-18T09:12:05;46.95;;;17.85;;
73919;SDS011;62266;53.348;-1.496;2022-12-18T09:14:31;51.55;;;17.95;;
73919;SDS011;62266;53.348;-1.496;2022-12-18T09:16:58;47.67;;;17.73;;
73919;SDS011;62266;53.348;-1.496;2022-12-18T09:19:24;50.50;;;19.10;;
73919;SDS011;62266;53.348;-1.496;2022-12-18T09:21:51;51.87;;;19.40;;
73919;SDS011;62266;53.348;-1.496;2022-12-18T09:24:30;52.50;;;18.55;;
73919;SDS011;62266;53.348;-1.496;2022-12-18T09:27:00;45.40;;;16.20;;
73919;SDS011;62266;53.348;-1.496;2022-12-18T09:29:27;50.97;;;18.63;;
73919;SDS011;62266;53.348;-1.496;2022-12-18T09:31:54;45.78;;;17.45;;
73919;SDS011;62266;53.348;-1.496;2022-12-18T09:34:20;47.23;;;18.77;;
73919;SDS011;62266;53.348;-1.496;2022-12-18T09:36:48;44.83;;;16.38;;
73919;SDS011;62266;53.348;-1.496;2022-12-18T09:39:14;38.70;;;15.25;;
73919;SDS011;62266;53.348;-1.496;2022-12-18T09:41:46;41.65;;;16.55;;
73919;SDS011;62266;53.348;-1.496;2022-12-18T09:44:41;41.08;;;16.10;;
73919;SDS011;62266;53.348;-1.496;2022-12-18T09:47:24;42.27;;;15.90;;
73919;SDS011;62266;53.348;-1.496;2022-12-18T09:53:12;42.95;;;15.25;;
73919;SDS011;62266;53.348;-1.496;2022-12-18T09:55:54;38.90;;;15.60;;
73919;SDS011;62266;53.348;-1.496;2022-12-18T09:58:30;44.15;;;15.63;;
73919;SDS011;62266;53.348;-1.496;2022-12-18T10:01:26;41.00;;;15.57;;
73919;SDS011;62266;53.348;-1.496;2022-12-18T10:03:55;44.42;;;15.95;;
73919;SDS011;62266;53.348;-1.496;2022-12-18T10:09:00;40.08;;;14.77;;
73919;SDS011;62266;53.348;-1.496;2022-12-18T10:19:56;36.15;;;15.30;;
73919;SDS011;62266;53.348;-1.496;2022-12-18T10:25:34;40.25;;;16.90;;
73919;SDS011;62266;53.348;-1.496;2022-12-18T10:28:17;42.60;;;16.27;;
73919;SDS011;62266;53.348;-1.496;2022-12-18T10:30:45;36.55;;;14.75;;
73919;SDS011;62266;53.348;-1.496;2022-12-18T10:33:12;38.50;;;15.02;;
73919;SDS011;62266;53.348;-1.496;2022-12-18T10:35:44;36.83;;;15.23;;
73919;SDS011;62266;53.348;-1.496;2022-12-18T10:40:51;35.20;;;15.40;;
73919;SDS011;62266;53.348;-1.496;2022-12-18T10:43:23;36.95;;;15.43;;
73919;SDS011;62266;53.348;-1.496;2022-12-18T10:46:04;37.25;;;14.35;;
73919;SDS011;62266;53.348;-1.496;2022-12-18T10:48:31;34.83;;;13.75;;
73919;SDS011;62266;53.348;-1.496;2022-12-18T10:50:59;29.63;;;13.07;;
73919;SDS011;62266;53.348;-1.496;2022-12-18T10:53:28;34.93;;;13.50;;
73919;SDS011;62266;53.348;-1.496;2022-12-18T10:55:56;38.78;;;15.40;;
73919;SDS011;62266;53.348;-1.496;2022-12-18T11:01:13;34.25;;;16.33;;
73919;SDS011;62266;53.348;-1.496;2022-12-18T11:03:44;35.40;;;13.60;;
73919;SDS011;62266;53.348;-1.496;2022-12-18T11:08:39;33.75;;;13.95;;
73919;SDS011;62266;53.348;-1.496;2022-12-18T11:11:21;32.72;;;13.68;;
73919;SDS011;62266;53.348;-1.496;2022-12-18T11:16:43;29.75;;;13.70;;
73919;SDS011;62266;53.348;-1.496;2022-12-18T11:19:13;32.27;;;13.43;;
73919;SDS011;62266;53.348;-1.496;2022-12-18T11:21:57;32.80;;;13.75;;
73919;SDS011;62266;53.348;-1.496;2022-12-18T11:24:30;35.63;;;13.73;;
73919;SDS011;62266;53.348;-1.496;2022-12-18T11:26:57;33.22;;;13.82;;
73919;SDS011;62266;53.348;-1.496;2022-12-18T11:29:30;34.43;;;14.20;;
73919;SDS011;62266;53.348;-1.496;2022-12-18T11:32:13;33.70;;;13.63;;
73919;SDS011;62266;53.348;-1.496;2022-12-18T11:34:47;33.83;;;14.35;;
73919;SDS011;62266;53.348;-1.496;2022-12-18T11:37:15;33.85;;;14.30;;
73919;SDS011;62266;53.348;-1.496;2022-12-18T11:39:55;31.63;;;14.10;;
73919;SDS011;62266;53.348;-1.496;2022-12-18T11:50:14;29.98;;;13.95;;
73919;SDS011;62266;53.348;-1.496;2022-12-18T11:52:44;33.30;;;14.25;;
73919;SDS011;62266;53.348;-1.496;2022-12-18T11:55:14;32.97;;;12.43;;
73919;SDS011;62266;53.348;-1.496;2022-12-18T12:13:11;39.05;;;15.90;;
73919;SDS011;62266;53.348;-1.496;2022-12-18T12:18:32;35.35;;;15.57;;
73919;SDS011;62266;53.348;-1.496;2022-12-18T12:29:09;32.67;;;14.50;;
73919;SDS011;62266;53.348;-1.496;2022-12-18T12:34:39;34.65;;;14.98;;
73919;SDS011;62266;53.348;-1.496;2022-12-18T12:40:01;29.55;;;13.23;;
73919;SDS011;62266;53.348;-1.496;2022-12-18T12:45:07;33.30;;;14.13;;
73919;SDS011;62266;53.348;-1.496;2022-12-18T12:47:41;32.10;;;14.32;;
73919;SDS011;62266;53.348;-1.496;2022-12-18T12:50:12;30.47;;;14.20;;
73919;SDS011;62266;53.348;-1.496;2022-12-18T12:52:41;34.78;;;14.82;;
73919;SDS011;62266;53.348;-1.496;2022-12-18T12:55:22;35.88;;;14.27;;
73919;SDS011;62266;53.348;-1.496;2022-12-18T12:57:54;35.75;;;15.15;;
73919;SDS011;62266;53.348;-1.496;2022-12-18T13:00:21;35.25;;;15.38;;
73919;SDS011;62266;53.348;-1.496;2022-12-18T13:06:03;36.65;;;16.17;;
73919;SDS011;62266;53.348;-1.496;2022-12-18T13:08:51;37.15;;;16.75;;
73919;SDS011;62266;53.348;-1.496;2022-12-18T13:14:24;34.45;;;15.48;;
73919;SDS011;62266;53.348;-1.496;2022-12-18T13:16:51;34.57;;;14.80;;
73919;SDS011;62266;53.348;-1.496;2022-12-18T13:19:23;31.20;;;15.70;;
73919;SDS011;62266;53.348;-1.496;2022-12-18T13:21:56;30.02;;;13.82;;
73919;SDS011;62266;53.348;-1.496;2022-12-18T13:24:27;32.40;;;14.53;;
73919;SDS011;62266;53.348;-1.496;2022-12-18T13:26:55;38.75;;;16.15;;
73919;SDS011;62266;53.348;-1.496;2022-12-18T13:32:22;33.78;;;14.90;;
73919;SDS011;62266;53.348;-1.496;2022-12-18T13:37:43;31.05;;;15.40;;
73919;SDS011;62266;53.348;-1.496;2022-12-18T13:51:21;38.95;;;16.65;;
73919;SDS011;62266;53.348;-1.496;2022-12-18T13:53:51;35.72;;;17.02;;
73919;SDS011;62266;53.348;-1.496;2022-12-18T13:56:26;37.77;;;16.73;;
73919;SDS011;62266;53.348;-1.496;2022-12-18T14:01:52;35.88;;;16.27;;
73919;SDS011;62266;53.348;-1.496;2022-12-18T14:04:23;40.50;;;17.13;;
73919;SDS011;62266;53.348;-1.496;2022-12-18T14:06:57;39.33;;;17.83;;
73919;SDS011;62266;53.348;-1.496;2022-12-18T14:09:33;40.87;;;16.93;;
73919;SDS011;62266;53.348;-1.496;2022-12-18T14:12:00;41.58;;;17.50;;
73919;SDS011;62266;53.348;-1.496;2022-12-18T14:14:45;38.95;;;17.88;;
73919;SDS011;62266;53.348;-1.496;2022-12-18T14:17:12;40.55;;;17.23;;
73919;SDS011;62266;53.348;-1.496;2022-12-18T14:19:46;35.17;;;15.70;;
73919;SDS011;62266;53.348;-1.496;2022-12-18T14:22:25;40.03;;;16.73;;
73919;SDS011;62266;53.348;-1.496;2022-12-18T14:25:10;45.25;;;17.58;;
73919;SDS011;62266;53.348;-1.496;2022-12-18T14:27:42;35.58;;;16.55;;
73919;SDS011;62266;53.348;-1.496;2022-12-18T14:30:43;37.90;;;16.63;;
73919;SDS011;62266;53.348;-1.496;2022-12-18T14:35:36;41.03;;;16.67;;
73919;SDS011;62266;53.348;-1.496;2022-12-18T14:43:34;35.17;;;16.77;;
73919;SDS011;62266;53.348;-1.496;2022-12-18T14:46:01;38.95;;;16.77;;
73919;SDS011;62266;53.348;-1.496;2022-12-18T14:48:41;41.87;;;16.77;;
73919;SDS011;62266;53.348;-1.496;2022-12-18T14:53:44;40.38;;;17.92;;
73919;SDS011;62266;53.348;-1.496;2022-12-18T14:56:13;40.10;;;17.83;;
73919;SDS011;62266;53.348;-1.496;2022-12-18T15:01:27;35.47;;;16.93;;
73919;SDS011;62266;53.348;-1.496;2022-12-18T15:03:55;39.60;;;16.27;;
73919;SDS011;62266;53.348;-1.496;2022-12-18T15:06:42;41.53;;;18.27;;
73919;SDS011;62266;53.348;-1.496;2022-12-18T15:09:22;39.42;;;17.70;;
73919;SDS011;62266;53.348;-1.496;2022-12-18T15:11:49;41.85;;;18.25;;
73919;SDS011;62266;53.348;-1.496;2022-12-18T15:14:22;43.37;;;17.97;;
73919;SDS011;62266;53.348;-1.496;2022-12-18T15:16:58;41.95;;;18.77;;
73919;SDS011;62266;53.348;-1.496;2022-12-18T15:19:46;47.42;;;16.80;;
73919;SDS011;62266;53.348;-1.496;2022-12-18T15:24:45;37.33;;;16.83;;
73919;SDS011;62266;53.348;-1.496;2022-12-18T15:27:21;34.57;;;16.17;;
73919;SDS011;62266;53.348;-1.496;2022-12-18T15:32:33;34.72;;;15.98;;
73919;SDS011;62266;53.348;-1.496;2022-12-18T15:35:12;37.53;;;15.43;;
73919;SDS011;62266;53.348;-1.496;2022-12-18T15:37:40;40.90;;;16.77;;
73919;SDS011;62266;53.348;-1.496;2022-12-18T15:40:06;32.57;;;15.70;;
73919;SDS011;62266;53.348;-1.496;2022-12-18T15:42:33;35.17;;;19.15;;
73919;SDS011;62266;53.348;-1.496;2022-12-18T15:45:17;38.28;;;16.75;;
73919;SDS011;62266;53.348;-1.496;2022-12-18T15:47:43;31.13;;;15.82;;
73919;SDS011;62266;53.348;-1.496;2022-12-18T15:50:09;40.23;;;16.90;;
73919;SDS011;62266;53.348;-1.496;2022-12-18T15:52:38;36.22;;;16.80;;
73919;SDS011;62266;53.348;-1.496;2022-12-18T15:55:15;37.22;;;17.55;;
73919;SDS011;62266;53.348;-1.496;2022-12-18T15:58:06;36.78;;;16.45;;
73919;SDS011;62266;53.348;-1.496;2022-12-18T16:00:32;33.40;;;15.60;;
73919;SDS011;62266;53.348;-1.496;2022-12-18T16:03:00;34.27;;;17.73;;
73919;SDS011;62266;53.348;-1.496;2022-12-18T16:05:26;34.60;;;16.10;;
73919;SDS011;62266;53.348;-1.496;2022-12-18T16:07:53;34.75;;;15.82;;
73919;SDS011;62266;53.348;-1.496;2022-12-18T16:10:19;32.97;;;16.10;;
73919;SDS011;62266;53.348;-1.496;2022-12-18T16:12:45;34.15;;;16.95;;
73919;SDS011;62266;53.348;-1.496;2022-12-18T16:15:14;32.35;;;17.17;;
73919;SDS011;62266;53.348;-1.496;2022-12-18T16:17:42;31.73;;;16.60;;
73919;SDS011;62266;53.348;-1.496;2022-12-18T16:20:15;31.17;;;15.30;;
73919;SDS011;62266;53.348;-1.496;2022-12-18T16:22:43;35.83;;;16.60;;
73919;SDS011;62266;53.348;-1.496;2022-12-18T16:25:23;34.47;;;17.58;;
73919;SDS011;62266;53.348;-1.496;2022-12-18T16:27:50;34.35;;;15.43;;
73919;SDS011;62266;53.348;-1.496;2022-12-18T16:30:20;33.63;;;15.25;;
73919;SDS011;62266;53.348;-1.496;2022-12-18T16:32:47;28.13;;;14.67;;
73919;SDS011;62266;53.348;-1.496;2022-12-18T16:35:15;31.52;;;15.48;;
73919;SDS011;62266;53.348;-1.496;2022-12-18T16:37:42;31.80;;;14.57;;
73919;SDS011;62266;53.348;-1.496;2022-12-18T16:40:09;26.45;;;14.75;;
73919;SDS011;62266;53.348;-1.496;2022-12-18T16:42:36;34.10;;;16.50;;